sensor_id;sensor_type;location;lat;lon;timestamp;P1;durP1;ratioP1;P2;durP2;ratioP2
72275;SDS011;61204;49.980;8.358;2024-01-27T00:02:22;14.05;;;4.72;;
72275;SDS011;61204;49.980;8.358;2024-01-27T00:04:47;8.50;;;3.25;;
72275;SDS011;61204;49.980;8.358;2024-01-27T00:07:15;9.32;;;3.45;;
72275;SDS011;61204;49.980;8.358;2024-01-27T00:09:43;8.93;;;3.17;;
72275;SDS011;61204;49.980;8.358;2024-01-27T00:12:09;8.57;;;2.35;;
72275;SDS011;61204;49.980;8.358;2024-01-27T00:14:37;7.15;;;3.47;;
72275;SDS011;61204;49.980;8.358;2024-01-27T00:17:04;13.95;;;3.60;;
72275;SDS011;61204;49.980;8.358;2024-01-27T00:19:30;13.32;;;3.35;;
72275;SDS011;61204;49.980;8.358;2024-01-27T00:21:57;9.25;;;2.28;;
72275;SDS011;61204;49.980;8.358;2024-01-27T00:24:23;6.18;;;2.00;;
72275;SDS011;61204;49.980;8.358;2024-01-27T00:26:49;5.22;;;2.20;;
72275;SDS011;61204;49.980;8.358;2024-01-27T00:29:15;7.68;;;2.88;;
72275;SDS011;61204;49.980;8.358;2024-01-27T00:31:40;7.28;;;2.40;;
72275;SDS011;61204;49.980;8.358;2024-01-27T00:34:06;13.70;;;3.88;;
72275;SDS011;61204;49.980;8.358;2024-01-27T00:36:31;7.07;;;2.63;;
72275;SDS011;61204;49.980;8.358;2024-01-27T00:38:57;10.35;;;2.78;;
72275;SDS011;61204;49.980;8.358;2024-01-27T00:41:22;9.25;;;2.40;;
72275;SDS011;61204;49.980;8.358;2024-01-27T00:43:48;9.57;;;2.38;;
72275;SDS011;61204;49.980;8.358;2024-01-27T00:46:14;5.55;;;2.20;;
72275;SDS011;61204;49.980;8.358;2024-01-27T00:48:39;8.57;;;1.77;;
72275;SDS011;61204;49.980;8.358;2024-01-27T00:51:05;6.85;;;2.50;;
72275;SDS011;61204;49.980;8.358;2024-01-27T00:53:33;6.25;;;2.40;;
72275;SDS011;61204;49.980;8.358;2024-01-27T00:55:58;7.18;;;1.73;;
72275;SDS011;61204;49.980;8.358;2024-01-27T00:58:24;11.13;;;2.22;;
72275;SDS011;61204;49.980;8.358;2024-01-27T01:00:49;5.40;;;2.20;;
72275;SDS011;61204;49.980;8.358;2024-01-27T01:03:17;7.05;;;2.53;;
72275;SDS011;61204;49.980;8.358;2024-01-27T01:05:43;7.97;;;2.10;;
72275;SDS011;61204;49.980;8.358;2024-01-27T01:08:09;9.90;;;2.40;;
72275;SDS011;61204;49.980;8.358;2024-01-27T01:10:34;9.52;;;1.80;;
72275;SDS011;61204;49.980;8.358;2024-01-27T01:13:00;12.10;;;2.35;;
72275;SDS011;61204;49.980;8.358;2024-01-27T01:15:26;11.35;;;2.03;;
72275;SDS011;61204;49.980;8.358;2024-01-27T01:17:51;8.18;;;1.85;;
72275;SDS011;61204;49.980;8.358;2024-01-27T01:20:17;4.88;;;2.15;;
72275;SDS011;61204;49.980;8.358;2024-01-27T01:22:42;6.05;;;2.22;;
72275;SDS011;61204;49.980;8.358;2024-01-27T01:25:08;7.15;;;1.67;;
72275;SDS011;61204;49.980;8.358;2024-01-27T01:27:36;7.90;;;1.90;;
72275;SDS011;61204;49.980;8.358;2024-01-27T01:30:04;2.90;;;1.65;;
72275;SDS011;61204;49.980;8.358;2024-01-27T01:32:30;7.40;;;2.22;;
72275;SDS011;61204;49.980;8.358;2024-01-27T01:34:56;8.82;;;2.05;;
72275;SDS011;61204;49.980;8.358;2024-01-27T01:37:21;9.77;;;2.08;;
72275;SDS011;61204;49.980;8.358;2024-01-27T01:39:52;6.85;;;2.00;;
72275;SDS011;61204;49.980;8.358;2024-01-27T01:42:17;6.47;;;1.92;;
72275;SDS011;61204;49.980;8.358;2024-01-27T01:44:45;8.40;;;2.33;;
72275;SDS011;61204;49.980;8.358;2024-01-27T01:47:10;8.57;;;2.00;;
72275;SDS011;61204;49.980;8.358;2024-01-27T01:49:37;11.43;;;2.70;;
72275;SDS011;61204;49.980;8.358;2024-01-27T01:52:02;7.35;;;1.88;;
72275;SDS011;61204;49.980;8.358;2024-01-27T01:54:29;4.35;;;1.85;;
72275;SDS011;61204;49.980;8.358;2024-01-27T01:56:56;4.25;;;2.00;;
72275;SDS011;61204;49.980;8.358;2024-01-27T01:59:24;5.40;;;1.67;;
72275;SDS011;61204;49.980;8.358;2024-01-27T02:01:50;10.25;;;1.80;;
72275;SDS011;61204;49.980;8.358;2024-01-27T02:04:15;8.63;;;2.13;;
72275;SDS011;61204;49.980;8.358;2024-01-27T02:06:41;11.45;;;2.20;;
72275;SDS011;61204;49.980;8.358;2024-01-27T02:09:09;5.13;;;1.83;;
72275;SDS011;61204;49.980;8.358;2024-01-27T02:11:37;4.93;;;1.83;;
72275;SDS011;61204;49.980;8.358;2024-01-27T02:14:02;6.45;;;2.35;;
72275;SDS011;61204;49.980;8.358;2024-01-27T02:16:29;8.23;;;2.10;;
72275;SDS011;61204;49.980;8.358;2024-01-27T02:18:54;11.00;;;2.40;;
72275;SDS011;61204;49.980;8.358;2024-01-27T02:21:20;11.57;;;2.42;;
72275;SDS011;61204;49.980;8.358;2024-01-27T02:23:45;9.55;;;2.13;;
72275;SDS011;61204;49.980;8.358;2024-01-27T02:26:11;8.55;;;1.92;;
72275;SDS011;61204;49.980;8.358;2024-01-27T02:28:36;7.13;;;2.03;;
72275;SDS011;61204;49.980;8.358;2024-01-27T02:31:02;8.18;;;2.08;;
72275;SDS011;61204;49.980;8.358;2024-01-27T02:33:28;6.47;;;2.25;;
72275;SDS011;61204;49.980;8.358;2024-01-27T02:35:56;15.50;;;2.35;;
72275;SDS011;61204;49.980;8.358;2024-01-27T02:38:22;6.85;;;2.05;;
72275;SDS011;61204;49.980;8.358;2024-01-27T02:40:47;7.68;;;2.10;;
72275;SDS011;61204;49.980;8.358;2024-01-27T02:43:15;7.53;;;2.90;;
72275;SDS011;61204;49.980;8.358;2024-01-27T02:45:43;8.70;;;1.92;;
72275;SDS011;61204;49.980;8.358;2024-01-27T02:48:08;5.35;;;2.28;;
72275;SDS011;61204;49.980;8.358;2024-01-27T02:50:36;7.43;;;2.08;;
72275;SDS011;61204;49.980;8.358;2024-01-27T02:53:02;6.20;;;2.38;;
72275;SDS011;61204;49.980;8.358;2024-01-27T02:55:30;11.25;;;2.20;;
72275;SDS011;61204;49.980;8.358;2024-01-27T02:57:55;4.43;;;2.05;;
72275;SDS011;61204;49.980;8.358;2024-01-27T03:00:21;7.78;;;2.00;;
72275;SDS011;61204;49.980;8.358;2024-01-27T03:02:47;9.40;;;2.25;;
72275;SDS011;61204;49.980;8.358;2024-01-27T03:05:12;5.43;;;2.58;;
72275;SDS011;61204;49.980;8.358;2024-01-27T03:07:41;5.90;;;2.20;;
72275;SDS011;61204;49.980;8.358;2024-01-27T03:10:06;12.18;;;2.50;;
72275;SDS011;61204;49.980;8.358;2024-01-27T03:12:32;9.75;;;2.60;;
72275;SDS011;61204;49.980;8.358;2024-01-27T03:15:02;10.05;;;2.08;;
72275;SDS011;61204;49.980;8.358;2024-01-27T03:17:29;6.30;;;2.10;;
72275;SDS011;61204;49.980;8.358;2024-01-27T03:19:54;6.47;;;2.08;;
72275;SDS011;61204;49.980;8.358;2024-01-27T03:22:20;6.53;;;1.75;;
72275;SDS011;61204;49.980;8.358;2024-01-27T03:24:45;5.45;;;2.15;;
72275;SDS011;61204;49.980;8.358;2024-01-27T03:27:11;15.75;;;3.10;;
72275;SDS011;61204;49.980;8.358;2024-01-27T03:29:39;10.65;;;2.20;;
72275;SDS011;61204;49.980;8.358;2024-01-27T03:32:04;13.98;;;2.55;;
72275;SDS011;61204;49.980;8.358;2024-01-27T03:34:30;13.38;;;3.30;;
72275;SDS011;61204;49.980;8.358;2024-01-27T03:36:58;15.93;;;3.05;;
72275;SDS011;61204;49.980;8.358;2024-01-27T03:39:24;15.68;;;3.63;;
72275;SDS011;61204;49.980;8.358;2024-01-27T03:41:49;20.67;;;3.03;;
72275;SDS011;61204;49.980;8.358;2024-01-27T03:44:17;9.63;;;2.67;;
72275;SDS011;61204;49.980;8.358;2024-01-27T03:46:42;10.55;;;2.40;;
72275;SDS011;61204;49.980;8.358;2024-01-27T03:49:08;9.80;;;2.30;;
72275;SDS011;61204;49.980;8.358;2024-01-27T03:51:33;10.85;;;2.88;;
72275;SDS011;61204;49.980;8.358;2024-01-27T03:53:59;6.63;;;2.53;;
72275;SDS011;61204;49.980;8.358;2024-01-27T03:56:24;5.50;;;2.42;;
72275;SDS011;61204;49.980;8.358;2024-01-27T03:58:50;9.20;;;3.00;;
72275;SDS011;61204;49.980;8.358;2024-01-27T04:01:18;8.60;;;2.63;;
72275;SDS011;61204;49.980;8.358;2024-01-27T04:03:43;7.97;;;2.40;;
72275;SDS011;61204;49.980;8.358;2024-01-27T04:06:09;5.97;;;1.80;;
72275;SDS011;61204;49.980;8.358;2024-01-27T04:08:34;7.47;;;2.90;;
72275;SDS011;61204;49.980;8.358;2024-01-27T04:11:00;8.48;;;2.95;;
72275;SDS011;61204;49.980;8.358;2024-01-27T04:13:26;8.93;;;2.58;;
72275;SDS011;61204;49.980;8.358;2024-01-27T04:15:51;7.53;;;2.58;;
72275;SDS011;61204;49.980;8.358;2024-01-27T04:18:18;7.95;;;2.50;;
72275;SDS011;61204;49.980;8.358;2024-01-27T04:20:44;5.43;;;2.33;;
72275;SDS011;61204;49.980;8.358;2024-01-27T04:23:11;7.68;;;2.67;;
72275;SDS011;61204;49.980;8.358;2024-01-27T04:25:36;13.00;;;3.03;;
72275;SDS011;61204;49.980;8.358;2024-01-27T04:28:02;9.20;;;3.17;;
72275;SDS011;61204;49.980;8.358;2024-01-27T04:30:28;8.60;;;2.65;;
72275;SDS011;61204;49.980;8.358;2024-01-27T04:32:54;5.03;;;2.13;;
72275;SDS011;61204;49.980;8.358;2024-01-27T04:35:19;7.95;;;2.70;;
72275;SDS011;61204;49.980;8.358;2024-01-27T04:37:45;8.23;;;2.63;;
72275;SDS011;61204;49.980;8.358;2024-01-27T04:40:11;8.18;;;2.47;;
72275;SDS011;61204;49.980;8.358;2024-01-27T04:42:37;6.78;;;2.22;;
72275;SDS011;61204;49.980;8.358;2024-01-27T04:45:07;6.15;;;2.40;;
72275;SDS011;61204;49.980;8.358;2024-01-27T04:47:33;6.40;;;3.08;;
72275;SDS011;61204;49.980;8.358;2024-01-27T04:49:59;6.35;;;3.05;;
72275;SDS011;61204;49.980;8.358;2024-01-27T04:52:24;9.52;;;2.95;;
72275;SDS011;61204;49.980;8.358;2024-01-27T04:54:50;8.98;;;2.63;;
72275;SDS011;61204;49.980;8.358;2024-01-27T04:57:16;5.38;;;2.40;;
72275;SDS011;61204;49.980;8.358;2024-01-27T04:59:42;7.13;;;3.67;;
72275;SDS011;61204;49.980;8.358;2024-01-27T05:02:07;10.32;;;3.00;;
72275;SDS011;61204;49.980;8.358;2024-01-27T05:04:33;6.43;;;2.42;;
72275;SDS011;61204;49.980;8.358;2024-01-27T05:07:00;6.78;;;2.65;;
72275;SDS011;61204;49.980;8.358;2024-01-27T05:09:26;8.98;;;2.42;;
72275;SDS011;61204;49.980;8.358;2024-01-27T05:11:52;8.80;;;2.45;;
72275;SDS011;61204;49.980;8.358;2024-01-27T05:14:19;11.02;;;2.70;;
72275;SDS011;61204;49.980;8.358;2024-01-27T05:16:45;6.22;;;2.60;;
72275;SDS011;61204;49.980;8.358;2024-01-27T05:19:15;7.97;;;2.58;;
72275;SDS011;61204;49.980;8.358;2024-01-27T05:21:42;12.30;;;3.20;;
72275;SDS011;61204;49.980;8.358;2024-01-27T05:24:09;10.80;;;2.80;;
72275;SDS011;61204;49.980;8.358;2024-01-27T05:26:34;5.63;;;2.28;;
72275;SDS011;61204;49.980;8.358;2024-01-27T05:29:00;11.25;;;2.35;;
72275;SDS011;61204;49.980;8.358;2024-01-27T05:31:26;8.30;;;3.20;;
72275;SDS011;61204;49.980;8.358;2024-01-27T05:33:52;10.15;;;3.00;;
72275;SDS011;61204;49.980;8.358;2024-01-27T05:36:17;7.60;;;2.47;;
72275;SDS011;61204;49.980;8.358;2024-01-27T05:38:43;9.38;;;2.75;;
72275;SDS011;61204;49.980;8.358;2024-01-27T05:41:08;13.85;;;3.10;;
72275;SDS011;61204;49.980;8.358;2024-01-27T05:43:34;9.27;;;3.10;;
72275;SDS011;61204;49.980;8.358;2024-01-27T05:46:00;12.40;;;3.20;;
72275;SDS011;61204;49.980;8.358;2024-01-27T05:48:25;8.02;;;3.03;;
72275;SDS011;61204;49.980;8.358;2024-01-27T05:50:57;6.18;;;2.40;;
72275;SDS011;61204;49.980;8.358;2024-01-27T05:53:25;11.88;;;3.33;;
72275;SDS011;61204;49.980;8.358;2024-01-27T05:55:52;9.35;;;2.92;;
72275;SDS011;61204;49.980;8.358;2024-01-27T05:58:19;13.73;;;3.17;;
72275;SDS011;61204;49.980;8.358;2024-01-27T06:00:48;7.50;;;2.80;;
72275;SDS011;61204;49.980;8.358;2024-01-27T06:03:14;5.50;;;2.70;;
72275;SDS011;61204;49.980;8.358;2024-01-27T06:05:42;8.40;;;2.85;;
72275;SDS011;61204;49.980;8.358;2024-01-27T06:08:08;6.75;;;2.60;;
72275;SDS011;61204;49.980;8.358;2024-01-27T06:10:34;7.55;;;3.38;;
72275;SDS011;61204;49.980;8.358;2024-01-27T06:13:01;8.23;;;2.97;;
72275;SDS011;61204;49.980;8.358;2024-01-27T06:15:28;6.50;;;3.60;;
72275;SDS011;61204;49.980;8.358;2024-01-27T06:17:54;10.30;;;3.55;;
72275;SDS011;61204;49.980;8.358;2024-01-27T06:20:19;12.90;;;4.43;;
72275;SDS011;61204;49.980;8.358;2024-01-27T06:22:45;6.50;;;3.70;;
72275;SDS011;61204;49.980;8.358;2024-01-27T06:25:11;10.73;;;4.00;;
72275;SDS011;61204;49.980;8.358;2024-01-27T06:27:37;9.43;;;3.80;;
72275;SDS011;61204;49.980;8.358;2024-01-27T06:30:03;7.55;;;3.97;;
72275;SDS011;61204;49.980;8.358;2024-01-27T06:32:30;5.30;;;3.15;;
72275;SDS011;61204;49.980;8.358;2024-01-27T06:34:56;9.00;;;3.70;;
72275;SDS011;61204;49.980;8.358;2024-01-27T06:37:21;8.32;;;3.50;;
72275;SDS011;61204;49.980;8.358;2024-01-27T06:39:47;12.60;;;3.90;;
72275;SDS011;61204;49.980;8.358;2024-01-27T06:42:13;13.88;;;3.38;;
72275;SDS011;61204;49.980;8.358;2024-01-27T06:44:40;7.35;;;3.42;;
72275;SDS011;61204;49.980;8.358;2024-01-27T06:47:06;10.55;;;4.07;;
72275;SDS011;61204;49.980;8.358;2024-01-27T06:49:31;8.65;;;3.35;;
72275;SDS011;61204;49.980;8.358;2024-01-27T06:51:58;10.13;;;3.78;;
72275;SDS011;61204;49.980;8.358;2024-01-27T06:54:25;7.72;;;3.55;;
72275;SDS011;61204;49.980;8.358;2024-01-27T06:56:51;9.13;;;3.78;;
72275;SDS011;61204;49.980;8.358;2024-01-27T06:59:16;6.72;;;3.17;;
72275;SDS011;61204;49.980;8.358;2024-01-27T07:01:46;10.00;;;3.33;;
72275;SDS011;61204;49.980;8.358;2024-01-27T07:04:13;6.50;;;3.63;;
72275;SDS011;61204;49.980;8.358;2024-01-27T07:06:40;10.30;;;4.45;;
72275;SDS011;61204;49.980;8.358;2024-01-27T07:09:06;12.32;;;3.33;;
72275;SDS011;61204;49.980;8.358;2024-01-27T07:11:32;10.85;;;4.18;;
72275;SDS011;61204;49.980;8.358;2024-01-27T07:13:58;9.32;;;4.00;;
72275;SDS011;61204;49.980;8.358;2024-01-27T07:16:24;8.93;;;3.97;;
72275;SDS011;61204;49.980;8.358;2024-01-27T07:18:52;7.68;;;3.75;;
72275;SDS011;61204;49.980;8.358;2024-01-27T07:21:17;12.32;;;3.95;;
72275;SDS011;61204;49.980;8.358;2024-01-27T07:23:43;8.43;;;3.63;;
72275;SDS011;61204;49.980;8.358;2024-01-27T07:26:10;10.15;;;3.20;;
72275;SDS011;61204;49.980;8.358;2024-01-27T07:28:38;12.90;;;3.35;;
72275;SDS011;61204;49.980;8.358;2024-01-27T07:31:07;8.90;;;3.03;;
72275;SDS011;61204;49.980;8.358;2024-01-27T07:33:33;7.68;;;4.03;;
72275;SDS011;61204;49.980;8.358;2024-01-27T07:35:58;11.48;;;4.47;;
72275;SDS011;61204;49.980;8.358;2024-01-27T07:38:24;16.90;;;5.35;;
72275;SDS011;61204;49.980;8.358;2024-01-27T07:40:51;11.18;;;4.43;;
72275;SDS011;61204;49.980;8.358;2024-01-27T07:43:17;12.88;;;4.82;;
72275;SDS011;61204;49.980;8.358;2024-01-27T07:45:43;9.25;;;4.00;;
72275;SDS011;61204;49.980;8.358;2024-01-27T07:48:11;5.97;;;3.33;;
72275;SDS011;61204;49.980;8.358;2024-01-27T07:50:37;8.32;;;4.70;;
72275;SDS011;61204;49.980;8.358;2024-01-27T07:53:05;8.25;;;4.40;;
72275;SDS011;61204;49.980;8.358;2024-01-27T07:55:31;9.25;;;3.95;;
72275;SDS011;61204;49.980;8.358;2024-01-27T07:57:56;13.15;;;4.05;;
72275;SDS011;61204;49.980;8.358;2024-01-27T08:00:25;13.00;;;3.90;;
72275;SDS011;61204;49.980;8.358;2024-01-27T08:02:51;5.40;;;3.33;;
72275;SDS011;61204;49.980;8.358;2024-01-27T08:05:17;10.82;;;3.97;;
72275;SDS011;61204;49.980;8.358;2024-01-27T08:07:45;14.00;;;3.60;;
72275;SDS011;61204;49.980;8.358;2024-01-27T08:10:10;11.98;;;4.50;;
72275;SDS011;61204;49.980;8.358;2024-01-27T08:12:36;9.73;;;3.80;;
72275;SDS011;61204;49.980;8.358;2024-01-27T08:15:04;10.73;;;4.38;;
72275;SDS011;61204;49.980;8.358;2024-01-27T08:17:31;7.28;;;4.03;;
72275;SDS011;61204;49.980;8.358;2024-01-27T08:19:59;7.90;;;3.75;;
72275;SDS011;61204;49.980;8.358;2024-01-27T08:22:24;11.18;;;3.90;;
72275;SDS011;61204;49.980;8.358;2024-01-27T08:24:50;10.15;;;3.75;;
72275;SDS011;61204;49.980;8.358;2024-01-27T08:27:16;6.30;;;3.42;;
72275;SDS011;61204;49.980;8.358;2024-01-27T08:29:41;8.48;;;4.68;;
72275;SDS011;61204;49.980;8.358;2024-01-27T08:32:07;11.82;;;4.28;;
72275;SDS011;61204;49.980;8.358;2024-01-27T08:34:32;13.68;;;4.90;;
72275;SDS011;61204;49.980;8.358;2024-01-27T08:37:02;12.70;;;3.72;;
72275;SDS011;61204;49.980;8.358;2024-01-27T08:39:44;11.10;;;4.00;;
72275;SDS011;61204;49.980;8.358;2024-01-27T08:42:11;9.07;;;3.42;;
72275;SDS011;61204;49.980;8.358;2024-01-27T08:44:37;9.23;;;3.97;;
72275;SDS011;61204;49.980;8.358;2024-01-27T08:47:04;13.55;;;3.72;;
72275;SDS011;61204;49.980;8.358;2024-01-27T08:49:31;14.88;;;4.20;;
72275;SDS011;61204;49.980;8.358;2024-01-27T09:15:45;8.15;;;4.05;;
72275;SDS011;61204;49.980;8.358;2024-01-27T09:18:14;6.20;;;3.72;;
72275;SDS011;61204;49.980;8.358;2024-01-27T09:21:27;9.60;;;4.22;;
72275;SDS011;61204;49.980;8.358;2024-01-27T09:23:55;8.60;;;3.53;;
72275;SDS011;61204;49.980;8.358;2024-01-27T09:26:23;7.93;;;3.70;;
72275;SDS011;61204;49.980;8.358;2024-01-27T09:28:48;9.25;;;3.33;;
72275;SDS011;61204;49.980;8.358;2024-01-27T09:31:21;11.25;;;4.10;;
72275;SDS011;61204;49.980;8.358;2024-01-27T09:33:51;5.95;;;3.33;;
72275;SDS011;61204;49.980;8.358;2024-01-27T09:36:19;12.90;;;3.90;;
72275;SDS011;61204;49.980;8.358;2024-01-27T09:38:48;8.20;;;3.22;;
72275;SDS011;61204;49.980;8.358;2024-01-27T09:41:17;10.52;;;3.75;;
72275;SDS011;61204;49.980;8.358;2024-01-27T09:43:43;5.20;;;3.00;;
72275;SDS011;61204;49.980;8.358;2024-01-27T09:46:14;7.45;;;2.80;;
72275;SDS011;61204;49.980;8.358;2024-01-27T09:48:42;9.07;;;3.38;;
72275;SDS011;61204;49.980;8.358;2024-01-27T09:51:10;7.80;;;3.17;;
72275;SDS011;61204;49.980;8.358;2024-01-27T09:53:36;9.80;;;3.50;;
72275;SDS011;61204;49.980;8.358;2024-01-27T09:56:02;9.02;;;3.22;;
72275;SDS011;61204;49.980;8.358;2024-01-27T09:58:31;7.65;;;2.92;;
72275;SDS011;61204;49.980;8.358;2024-01-27T10:00:58;9.23;;;3.17;;
72275;SDS011;61204;49.980;8.358;2024-01-27T10:03:26;8.15;;;3.22;;
72275;SDS011;61204;49.980;8.358;2024-01-27T10:05:55;8.90;;;4.53;;
72275;SDS011;61204;49.980;8.358;2024-01-27T10:08:22;10.98;;;3.65;;
72275;SDS011;61204;49.980;8.358;2024-01-27T10:10:53;9.63;;;4.32;;
72275;SDS011;61204;49.980;8.358;2024-01-27T10:13:21;8.80;;;3.72;;
72275;SDS011;61204;49.980;8.358;2024-01-27T10:16:02;13.30;;;4.85;;
72275;SDS011;61204;49.980;8.358;2024-01-27T10:18:31;9.27;;;3.95;;
72275;SDS011;61204;49.980;8.358;2024-01-27T10:20:58;9.80;;;4.90;;
72275;SDS011;61204;49.980;8.358;2024-01-27T10:23:27;12.07;;;4.63;;
72275;SDS011;61204;49.980;8.358;2024-01-27T10:25:53;9.27;;;4.38;;
72275;SDS011;61204;49.980;8.358;2024-01-27T10:28:18;12.52;;;4.47;;
72275;SDS011;61204;49.980;8.358;2024-01-27T10:30:51;9.00;;;3.47;;
72275;SDS011;61204;49.980;8.358;2024-01-27T10:33:16;7.32;;;3.30;;
72275;SDS011;61204;49.980;8.358;2024-01-27T10:35:45;13.30;;;3.33;;
72275;SDS011;61204;49.980;8.358;2024-01-27T10:38:10;9.55;;;3.85;;
72275;SDS011;61204;49.980;8.358;2024-01-27T10:40:38;8.50;;;3.35;;
72275;SDS011;61204;49.980;8.358;2024-01-27T10:43:05;7.70;;;3.25;;
72275;SDS011;61204;49.980;8.358;2024-01-27T10:45:42;13.45;;;3.35;;
72275;SDS011;61204;49.980;8.358;2024-01-27T10:48:08;13.80;;;3.53;;
72275;SDS011;61204;49.980;8.358;2024-01-27T10:50:39;9.20;;;2.92;;
72275;SDS011;61204;49.980;8.358;2024-01-27T10:53:09;12.90;;;4.07;;
72275;SDS011;61204;49.980;8.358;2024-01-27T10:55:49;11.02;;;3.80;;
72275;SDS011;61204;49.980;8.358;2024-01-27T10:58:22;8.13;;;3.20;;
72275;SDS011;61204;49.980;8.358;2024-01-27T11:00:52;7.07;;;3.25;;
72275;SDS011;61204;49.980;8.358;2024-01-27T11:03:21;6.88;;;3.08;;
72275;SDS011;61204;49.980;8.358;2024-01-27T11:05:49;7.97;;;3.33;;
72275;SDS011;61204;49.980;8.358;2024-01-27T11:08:18;8.38;;;3.08;;
72275;SDS011;61204;49.980;8.358;2024-01-27T11:10:44;12.27;;;3.13;;
72275;SDS011;61204;49.980;8.358;2024-01-27T11:13:11;9.02;;;3.10;;
72275;SDS011;61204;49.980;8.358;2024-01-27T11:15:37;7.93;;;3.05;;
72275;SDS011;61204;49.980;8.358;2024-01-27T11:18:17;6.82;;;3.17;;
72275;SDS011;61204;49.980;8.358;2024-01-27T11:20:44;8.80;;;3.22;;
72275;SDS011;61204;49.980;8.358;2024-01-27T11:23:12;9.95;;;2.60;;
72275;SDS011;61204;49.980;8.358;2024-01-27T11:25:41;7.60;;;2.70;;
72275;SDS011;61204;49.980;8.358;2024-01-27T11:28:14;7.05;;;2.63;;
72275;SDS011;61204;49.980;8.358;2024-01-27T11:30:45;9.88;;;2.88;;
72275;SDS011;61204;49.980;8.358;2024-01-27T11:33:12;6.72;;;2.42;;
72275;SDS011;61204;49.980;8.358;2024-01-27T11:35:39;7.70;;;2.40;;
72275;SDS011;61204;49.980;8.358;2024-01-27T11:38:09;8.30;;;2.67;;
72275;SDS011;61204;49.980;8.358;2024-01-27T11:40:44;5.45;;;2.03;;
72275;SDS011;61204;49.980;8.358;2024-01-27T11:43:14;7.75;;;1.90;;
72275;SDS011;61204;49.980;8.358;2024-01-27T11:45:40;8.55;;;2.70;;
72275;SDS011;61204;49.980;8.358;2024-01-27T11:48:06;7.43;;;2.42;;
72275;SDS011;61204;49.980;8.358;2024-01-27T11:50:32;9.70;;;2.78;;
72275;SDS011;61204;49.980;8.358;2024-01-27T11:52:57;5.30;;;2.42;;
72275;SDS011;61204;49.980;8.358;2024-01-27T11:55:23;11.82;;;3.63;;
72275;SDS011;61204;49.980;8.358;2024-01-27T11:57:51;7.18;;;4.10;;
72275;SDS011;61204;49.980;8.358;2024-01-27T12:00:16;6.20;;;2.97;;
72275;SDS011;61204;49.980;8.358;2024-01-27T12:02:43;7.65;;;2.60;;
72275;SDS011;61204;49.980;8.358;2024-01-27T12:05:08;8.82;;;2.63;;
72275;SDS011;61204;49.980;8.358;2024-01-27T12:07:34;7.10;;;2.50;;
72275;SDS011;61204;49.980;8.358;2024-01-27T12:10:03;12.77;;;3.85;;
72275;SDS011;61204;49.980;8.358;2024-01-27T12:12:30;6.32;;;2.42;;
72275;SDS011;61204;49.980;8.358;2024-01-27T12:14:55;8.95;;;3.30;;
72275;SDS011;61204;49.980;8.358;2024-01-27T12:17:21;6.78;;;2.67;;
72275;SDS011;61204;49.980;8.358;2024-01-27T12:19:48;11.48;;;3.17;;
72275;SDS011;61204;49.980;8.358;2024-01-27T12:22:26;12.70;;;3.33;;
72275;SDS011;61204;49.980;8.358;2024-01-27T12:24:55;8.70;;;3.05;;
72275;SDS011;61204;49.980;8.358;2024-01-27T12:27:34;5.18;;;2.17;;
72275;SDS011;61204;49.980;8.358;2024-01-27T12:30:00;5.78;;;2.22;;
72275;SDS011;61204;49.980;8.358;2024-01-27T12:32:30;8.93;;;2.65;;
72275;SDS011;61204;49.980;8.358;2024-01-27T12:34:57;8.48;;;3.47;;
72275;SDS011;61204;49.980;8.358;2024-01-27T12:37:25;12.13;;;3.17;;
72275;SDS011;61204;49.980;8.358;2024-01-27T12:39:51;9.88;;;3.17;;
72275;SDS011;61204;49.980;8.358;2024-01-27T12:42:17;8.98;;;2.63;;
72275;SDS011;61204;49.980;8.358;2024-01-27T12:44:43;6.38;;;2.15;;
72275;SDS011;61204;49.980;8.358;2024-01-27T12:47:11;9.60;;;3.25;;
72275;SDS011;61204;49.980;8.358;2024-01-27T12:49:38;6.40;;;2.75;;
72275;SDS011;61204;49.980;8.358;2024-01-27T12:52:07;10.73;;;3.05;;
72275;SDS011;61204;49.980;8.358;2024-01-27T12:54:33;6.40;;;2.35;;
72275;SDS011;61204;49.980;8.358;2024-01-27T12:56:59;7.85;;;2.42;;
72275;SDS011;61204;49.980;8.358;2024-01-27T12:59:26;7.40;;;2.80;;
72275;SDS011;61204;49.980;8.358;2024-01-27T13:01:53;9.43;;;2.88;;
72275;SDS011;61204;49.980;8.358;2024-01-27T13:04:21;8.18;;;2.55;;
72275;SDS011;61204;49.980;8.358;2024-01-27T13:06:47;7.03;;;2.63;;
72275;SDS011;61204;49.980;8.358;2024-01-27T13:09:13;9.10;;;3.10;;
72275;SDS011;61204;49.980;8.358;2024-01-27T13:11:39;10.00;;;3.20;;
72275;SDS011;61204;49.980;8.358;2024-01-27T13:14:05;8.05;;;2.95;;
72275;SDS011;61204;49.980;8.358;2024-01-27T13:16:31;9.40;;;2.45;;
72275;SDS011;61204;49.980;8.358;2024-01-27T13:18:57;5.63;;;2.63;;
72275;SDS011;61204;49.980;8.358;2024-01-27T13:21:23;8.18;;;2.30;;
72275;SDS011;61204;49.980;8.358;2024-01-27T13:23:48;7.47;;;2.97;;
72275;SDS011;61204;49.980;8.358;2024-01-27T13:26:14;4.80;;;2.70;;
72275;SDS011;61204;49.980;8.358;2024-01-27T13:28:41;10.55;;;2.75;;
72275;SDS011;61204;49.980;8.358;2024-01-27T13:31:06;12.10;;;2.78;;
72275;SDS011;61204;49.980;8.358;2024-01-27T13:33:32;7.03;;;2.75;;
72275;SDS011;61204;49.980;8.358;2024-01-27T13:36:00;7.65;;;2.90;;
72275;SDS011;61204;49.980;8.358;2024-01-27T13:38:26;8.90;;;2.70;;
72275;SDS011;61204;49.980;8.358;2024-01-27T13:40:51;7.50;;;2.13;;
72275;SDS011;61204;49.980;8.358;2024-01-27T13:43:17;6.70;;;3.28;;
72275;SDS011;61204;49.980;8.358;2024-01-27T13:45:43;10.85;;;2.70;;
72275;SDS011;61204;49.980;8.358;2024-01-27T13:48:09;7.28;;;2.42;;
72275;SDS011;61204;49.980;8.358;2024-01-27T13:50:35;10.27;;;2.38;;
72275;SDS011;61204;49.980;8.358;2024-01-27T13:53:01;9.50;;;2.33;;
72275;SDS011;61204;49.980;8.358;2024-01-27T13:55:26;4.55;;;2.40;;
72275;SDS011;61204;49.980;8.358;2024-01-27T13:57:52;9.02;;;2.65;;
72275;SDS011;61204;49.980;8.358;2024-01-27T14:00:18;8.80;;;3.97;;
72275;SDS011;61204;49.980;8.358;2024-01-27T14:02:45;7.10;;;1.90;;
72275;SDS011;61204;49.980;8.358;2024-01-27T14:05:11;11.45;;;2.22;;
72275;SDS011;61204;49.980;8.358;2024-01-27T14:07:36;9.95;;;2.70;;
72275;SDS011;61204;49.980;8.358;2024-01-27T14:10:02;10.68;;;2.60;;
72275;SDS011;61204;49.980;8.358;2024-01-27T14:12:31;5.00;;;2.25;;
72275;SDS011;61204;49.980;8.358;2024-01-27T14:15:06;5.63;;;2.05;;
72275;SDS011;61204;49.980;8.358;2024-01-27T14:17:33;4.63;;;2.20;;
72275;SDS011;61204;49.980;8.358;2024-01-27T14:20:01;7.50;;;2.60;;
72275;SDS011;61204;49.980;8.358;2024-01-27T14:22:30;9.18;;;1.95;;
72275;SDS011;61204;49.980;8.358;2024-01-27T14:24:56;8.13;;;1.90;;
72275;SDS011;61204;49.980;8.358;2024-01-27T14:27:22;6.70;;;2.22;;
72275;SDS011;61204;49.980;8.358;2024-01-27T14:29:53;9.20;;;2.15;;
72275;SDS011;61204;49.980;8.358;2024-01-27T14:32:21;11.43;;;2.50;;
72275;SDS011;61204;49.980;8.358;2024-01-27T14:34:48;6.18;;;2.33;;
72275;SDS011;61204;49.980;8.358;2024-01-27T14:37:15;7.13;;;2.08;;
72275;SDS011;61204;49.980;8.358;2024-01-27T14:39:44;8.23;;;2.00;;
72275;SDS011;61204;49.980;8.358;2024-01-27T14:42:13;4.80;;;2.45;;
72275;SDS011;61204;49.980;8.358;2024-01-27T14:44:42;6.05;;;2.33;;
72275;SDS011;61204;49.980;8.358;2024-01-27T14:47:10;6.97;;;2.00;;
72275;SDS011;61204;49.980;8.358;2024-01-27T14:49:36;6.53;;;2.10;;
72275;SDS011;61204;49.980;8.358;2024-01-27T14:52:03;3.92;;;1.67;;
72275;SDS011;61204;49.980;8.358;2024-01-27T14:54:33;10.00;;;2.47;;
72275;SDS011;61204;49.980;8.358;2024-01-27T14:57:02;5.28;;;2.03;;
72275;SDS011;61204;49.980;8.358;2024-01-27T14:59:29;9.70;;;2.08;;
72275;SDS011;61204;49.980;8.358;2024-01-27T15:01:56;8.40;;;2.20;;
72275;SDS011;61204;49.980;8.358;2024-01-27T15:04:25;14.13;;;3.05;;
72275;SDS011;61204;49.980;8.358;2024-01-27T15:06:55;10.50;;;1.95;;